< < Back
Terminal Aerodrome Forecast


Current Version              Previous Versions:   1  2  3  4  5  6  7  8  9  

Terminal Aerodrome Forecast

070
FTUS44 KBMX 271725
TAFMGM
TAF
KMGM 271725Z 2718/2818 33012G20KT P6SM FEW030
     FM280000 31010KT P6SM SCT040
     FM280600 32006KT P6SM SCT100=

Latest METAR

025
SAUS80 KWBC 280100 CCA
MTRMGM
METAR KMGM 280053Z 31010KT 10SM CLR 12/01 A3003 RMK AO2 SLP169
T01170006


USA.gov is the U.S. government's official web portal to all federal, state and local government web resources and services.